createdAt,value
2022-11-15T00:01:11.106Z,48.47
2022-11-15T00:03:38.242Z,47.42
2022-11-15T00:06:06.072Z,43.05
2022-11-15T00:08:34.274Z,47.90
2022-11-15T00:11:03.132Z,43.75
2022-11-15T00:13:31.100Z,49.45
2022-11-15T00:15:59.959Z,47.45
2022-11-15T00:18:27.117Z,49.42
2022-11-15T00:20:54.156Z,49.38
2022-11-15T00:23:21.204Z,47.97
2022-11-15T00:25:48.312Z,54.75
2022-11-15T00:28:15.310Z,49.17
2022-11-15T00:30:42.379Z,60.60
2022-11-15T00:33:11.141Z,51.28
2022-11-15T00:35:38.214Z,51.28
2022-11-15T00:38:05.262Z,45.55
2022-11-15T00:40:32.296Z,46.53
2022-11-15T00:42:59.382Z,48.08
2022-11-15T00:45:27.258Z,56.22
2022-11-15T00:47:54.334Z,56.88
2022-11-15T00:50:21.440Z,54.13
2022-11-15T00:52:48.461Z,58.58
2022-11-15T00:55:17.769Z,52.35
2022-11-15T00:57:45.719Z,50.97
2022-11-15T01:00:13.478Z,51.67
2022-11-15T01:02:40.468Z,53.53
2022-11-15T01:05:07.977Z,54.45
2022-11-15T01:07:35.162Z,59.80
2022-11-15T01:10:02.295Z,51.28
2022-11-15T01:12:29.301Z,56.38
2022-11-15T01:14:56.290Z,57.25
2022-11-15T01:17:23.269Z,51.08
2022-11-15T01:19:50.316Z,63.00
2022-11-15T01:22:17.565Z,52.75
2022-11-15T01:24:44.609Z,53.80
2022-11-15T01:27:11.630Z,59.90
2022-11-15T01:29:38.580Z,58.13
2022-11-15T01:32:05.574Z,54.08
2022-11-15T01:34:32.634Z,53.25
2022-11-15T01:37:00.077Z,55.75
2022-11-15T01:39:27.666Z,55.47
2022-11-15T01:41:55.402Z,56.45
2022-11-15T01:44:41.506Z,55.30
2022-11-15T01:47:17.134Z,58.85
2022-11-15T01:50:09.398Z,50.97
2022-11-15T01:52:38.501Z,50.33
2022-11-15T01:55:26.049Z,53.60
2022-11-15T01:57:57.961Z,51.30
2022-11-15T02:00:25.100Z,53.47
2022-11-15T02:02:52.305Z,57.80
2022-11-15T02:05:19.426Z,47.63
2022-11-15T02:07:47.214Z,49.78
2022-11-15T02:10:19.918Z,52.15
2022-11-15T02:12:48.681Z,50.70
2022-11-15T02:15:15.819Z,50.30
2022-11-15T02:17:57.888Z,50.55
2022-11-15T02:20:27.774Z,49.25
2022-11-15T02:23:56.033Z,47.13
2022-11-15T02:26:44.489Z,43.72
2022-11-15T02:29:29.603Z,44.78
2022-11-15T02:32:34.151Z,54.38
2022-11-15T02:35:12.907Z,44.28
2022-11-15T02:37:51.791Z,47.95
2022-11-15T02:40:29.989Z,46.53
2022-11-15T02:43:35.700Z,44.00
2022-11-15T02:46:53.948Z,45.28
2022-11-15T02:49:22.411Z,56.33
2022-11-15T02:51:52.083Z,48.47
2022-11-15T02:54:32.107Z,48.30
2022-11-15T02:57:13.591Z,41.97
2022-11-15T03:00:02.247Z,39.42
2022-11-15T03:02:56.659Z,39.92
2022-11-15T03:05:51.458Z,45.42
2022-11-15T03:08:29.843Z,44.03
2022-11-15T03:11:26.011Z,50.15
2022-11-15T03:14:09.109Z,49.15
2022-11-15T03:16:41.341Z,39.35
2022-11-15T03:19:32.992Z,50.65
2022-11-15T03:22:04.203Z,42.95
2022-11-15T03:24:33.159Z,44.65
2022-11-15T03:27:02.207Z,49.13
2022-11-15T03:29:37.927Z,45.85
2022-11-15T03:32:10.890Z,41.40
2022-11-15T03:34:43.133Z,49.72
2022-11-15T03:37:14.774Z,39.95
2022-11-15T03:39:42.553Z,49.25
2022-11-15T03:42:23.722Z,41.72
2022-11-15T03:45:03.865Z,59.85
2022-11-15T03:47:45.294Z,42.17
2022-11-15T03:50:15.889Z,41.95
2022-11-15T03:52:45.884Z,42.40
2022-11-15T03:55:17.468Z,43.05
2022-11-15T03:57:44.521Z,43.72
2022-11-15T04:00:12.300Z,39.70
2022-11-15T04:02:39.489Z,39.80
2022-11-15T04:05:06.680Z,42.88
2022-11-15T04:07:33.670Z,41.53
2022-11-15T04:10:04.332Z,41.55
2022-11-15T04:12:38.953Z,39.15
2022-11-15T04:15:14.245Z,35.10
2022-11-15T04:17:50.988Z,34.60
2022-11-15T04:20:42.147Z,37.45
2022-11-15T04:23:31.792Z,36.30
2022-11-15T04:26:02.669Z,36.63
2022-11-15T04:28:30.261Z,39.45
2022-11-15T04:30:58.264Z,36.95
2022-11-15T04:33:25.443Z,40.10
2022-11-15T04:36:11.131Z,40.63
2022-11-15T04:38:38.120Z,34.55
2022-11-15T04:41:05.276Z,32.13
2022-11-15T04:43:32.598Z,39.08
2022-11-15T04:45:59.810Z,39.15
2022-11-15T04:48:26.759Z,39.97
2022-11-15T04:50:53.701Z,36.30
2022-11-15T04:53:20.592Z,34.78
2022-11-15T04:55:48.068Z,36.50
2022-11-15T04:58:15.088Z,40.97
2022-11-15T05:00:42.260Z,38.33
2022-11-15T05:03:29.919Z,36.33
2022-11-15T05:05:58.381Z,38.40
2022-11-15T05:08:25.474Z,35.58
2022-11-15T05:10:52.458Z,48.25
2022-11-15T05:13:19.745Z,49.60
2022-11-15T05:15:46.736Z,53.00
2022-11-15T05:18:13.815Z,49.83
2022-11-15T05:20:40.778Z,47.72
2022-11-15T05:23:07.999Z,52.00
2022-11-15T05:25:36.760Z,53.88
2022-11-15T05:28:03.926Z,58.63
2022-11-15T05:30:31.484Z,53.80
2022-11-15T05:32:58.560Z,53.17
2022-11-15T05:35:35.921Z,54.22
2022-11-15T05:38:02.873Z,50.85
2022-11-15T05:40:31.246Z,46.70
2022-11-15T05:43:01.340Z,50.60
2022-11-15T05:45:29.342Z,46.67
2022-11-15T05:47:59.739Z,57.65
2022-11-15T05:50:27.330Z,46.00
2022-11-15T05:52:58.561Z,51.00
2022-11-15T05:55:28.284Z,48.17
2022-11-15T05:57:55.311Z,40.90
2022-11-15T06:00:22.445Z,42.00
2022-11-15T06:02:49.443Z,39.55
2022-11-15T06:05:16.553Z,40.65
2022-11-15T06:07:45.241Z,45.92
2022-11-15T06:10:12.353Z,37.40
2022-11-15T06:12:39.433Z,37.92
2022-11-15T06:15:06.982Z,44.85
2022-11-15T06:17:34.025Z,46.00
2022-11-15T06:20:01.065Z,42.28
2022-11-15T06:22:28.043Z,47.05
2022-11-15T06:24:55.001Z,46.20
2022-11-15T06:27:22.024Z,47.25
2022-11-15T06:29:49.035Z,41.78
2022-11-15T06:32:16.001Z,43.88
2022-11-15T06:34:42.989Z,48.85
2022-11-15T06:37:09.930Z,46.95
2022-11-15T06:39:36.970Z,57.13
2022-11-15T06:42:04.061Z,48.90
2022-11-15T06:44:31.012Z,41.88
2022-11-15T06:46:58.113Z,49.10
2022-11-15T06:49:25.127Z,42.00
2022-11-15T06:51:52.061Z,50.38
2022-11-15T06:54:19.053Z,47.40
2022-11-15T06:56:46.316Z,46.53
2022-11-15T06:59:13.326Z,46.20
2022-11-15T07:01:40.490Z,48.13
2022-11-15T07:04:07.589Z,42.88
2022-11-15T07:06:34.552Z,45.97
2022-11-15T07:09:04.382Z,44.60
2022-11-15T07:11:31.405Z,52.72
2022-11-15T07:13:58.328Z,60.08
2022-11-15T07:16:25.383Z,48.33
2022-11-15T07:18:52.322Z,45.15
2022-11-15T07:21:22.351Z,46.55
2022-11-15T07:23:53.339Z,43.13
2022-11-15T07:26:20.336Z,52.47
2022-11-15T07:28:47.534Z,63.55
2022-11-15T07:31:14.932Z,49.03
2022-11-15T07:33:41.941Z,45.40
2022-11-15T07:36:09.647Z,46.85
2022-11-15T07:38:42.456Z,39.00
2022-11-15T07:41:10.577Z,54.20
2022-11-15T07:43:37.800Z,62.55
2022-11-15T07:46:10.631Z,56.00
2022-11-15T07:48:45.270Z,46.22
2022-11-15T07:51:16.840Z,50.45
2022-11-15T07:53:45.120Z,47.65
2022-11-15T07:56:13.057Z,47.40
2022-11-15T07:58:40.354Z,44.05
2022-11-15T08:01:10.091Z,44.60
2022-11-15T08:03:37.717Z,47.25
2022-11-15T08:06:05.116Z,50.80
2022-11-15T08:08:32.232Z,43.03
2022-11-15T08:11:00.076Z,44.92
2022-11-15T08:13:27.182Z,40.17
2022-11-15T08:16:00.577Z,47.65
2022-11-15T08:18:27.576Z,43.97
2022-11-15T08:20:54.600Z,43.17
2022-11-15T08:23:23.252Z,41.38
2022-11-15T08:25:50.249Z,48.60
2022-11-15T08:28:18.790Z,42.05
2022-11-15T08:30:46.975Z,49.97
2022-11-15T08:33:15.163Z,46.92
2022-11-15T08:35:43.614Z,52.13
2022-11-15T08:38:11.102Z,41.05
2022-11-15T08:40:39.026Z,51.28
2022-11-15T08:43:06.376Z,41.35
2022-11-15T08:45:35.989Z,60.28
2022-11-15T08:48:04.510Z,53.20
2022-11-15T08:50:31.802Z,48.55
2022-11-15T08:52:59.074Z,42.90
2022-11-15T08:55:26.153Z,44.92
2022-11-15T08:57:53.128Z,45.75
2022-11-15T09:00:21.274Z,43.35
2022-11-15T09:02:48.289Z,45.30
2022-11-15T09:05:16.777Z,43.35
2022-11-15T09:07:44.603Z,44.50
2022-11-15T09:10:11.600Z,42.50
2022-11-15T09:12:38.926Z,43.63
2022-11-15T09:15:07.349Z,59.72
2022-11-15T09:17:34.407Z,58.28
2022-11-15T09:20:01.449Z,43.28
2022-11-15T09:22:28.645Z,41.83
2022-11-15T09:24:56.280Z,44.97
2022-11-15T09:27:23.298Z,41.92
2022-11-15T09:29:50.354Z,39.47
2022-11-15T09:32:17.461Z,42.15
2022-11-15T09:34:44.430Z,39.85
2022-11-15T09:37:11.503Z,40.80
2022-11-15T09:39:38.464Z,49.15
2022-11-15T09:42:26.280Z,52.03
2022-11-15T09:45:31.252Z,36.65
2022-11-15T09:48:31.154Z,42.72
2022-11-15T09:51:01.807Z,40.53
2022-11-15T09:54:13.692Z,46.80
2022-11-15T09:56:30.114Z,42.00
2022-11-15T09:59:11.859Z,48.67
2022-11-15T10:02:16.674Z,42.50
2022-11-15T10:04:44.355Z,46.65
2022-11-15T10:07:20.014Z,38.80
2022-11-15T10:09:52.655Z,36.97
2022-11-15T10:12:20.473Z,43.20
2022-11-15T10:14:54.434Z,44.05
2022-11-15T10:17:36.790Z,47.25
2022-11-15T10:20:26.255Z,48.85
2022-11-15T10:22:57.668Z,41.85
2022-11-15T10:25:32.443Z,48.67
2022-11-15T10:28:22.473Z,42.80
2022-11-15T10:30:53.877Z,41.60
2022-11-15T10:33:23.619Z,47.17
2022-11-15T10:36:14.590Z,46.17
2022-11-15T10:39:12.666Z,42.40
2022-11-15T10:41:42.835Z,54.65
2022-11-15T10:44:21.583Z,53.83
2022-11-15T10:46:57.760Z,43.25
2022-11-15T10:49:34.029Z,42.03
2022-11-15T10:52:04.228Z,42.97
2022-11-15T10:54:38.827Z,40.35
2022-11-15T10:57:15.012Z,46.88
2022-11-15T10:59:47.674Z,44.10
2022-11-15T11:03:09.829Z,48.13
2022-11-15T11:05:42.126Z,44.92
2022-11-15T11:08:13.320Z,46.28
2022-11-15T11:11:01.305Z,40.88
2022-11-15T11:13:39.445Z,48.03
2022-11-15T11:16:15.524Z,45.45
2022-11-15T11:18:57.487Z,52.50
2022-11-15T11:21:44.373Z,45.95
2022-11-15T11:24:30.093Z,52.92
2022-11-15T11:26:57.359Z,46.08
2022-11-15T11:29:42.300Z,44.55
2022-11-15T11:32:09.525Z,48.85
2022-11-15T11:34:51.349Z,55.60
2022-11-15T11:37:25.217Z,53.13
2022-11-15T11:40:11.887Z,52.47
2022-11-15T11:43:32.639Z,48.67
2022-11-15T11:46:32.373Z,49.90
2022-11-15T11:49:11.988Z,53.30
2022-11-15T11:51:41.145Z,45.65
2022-11-15T11:54:16.611Z,44.55
2022-11-15T11:56:45.837Z,48.40
2022-11-15T11:59:40.672Z,63.25
2022-11-15T12:02:26.021Z,65.00
2022-11-15T12:04:59.319Z,54.75
2022-11-15T12:07:33.043Z,46.70
2022-11-15T12:10:10.147Z,45.75
2022-11-15T12:13:02.009Z,47.35
2022-11-15T12:15:57.234Z,51.95
2022-11-15T12:18:24.286Z,44.15
2022-11-15T12:21:00.363Z,50.60
2022-11-15T12:23:31.064Z,49.42
2022-11-15T12:26:13.341Z,63.47
2022-11-15T12:29:05.932Z,44.50
2022-11-15T12:31:36.506Z,46.30
2022-11-15T12:34:20.642Z,52.13
2022-11-15T12:36:49.333Z,50.30
2022-11-15T12:39:17.921Z,51.88
2022-11-15T12:41:58.668Z,52.65
2022-11-15T12:44:31.611Z,41.63
2022-11-15T12:46:58.595Z,48.90
2022-11-15T12:49:28.397Z,48.85
2022-11-15T12:51:58.175Z,55.35
2022-11-15T12:54:25.139Z,53.63
2022-11-15T12:57:04.916Z,49.33
2022-11-15T12:59:59.985Z,41.42
2022-11-15T13:02:28.142Z,50.88
2022-11-15T13:05:17.299Z,49.80
2022-11-15T13:07:44.271Z,52.53
2022-11-15T13:10:11.257Z,66.80
2022-11-15T13:12:47.704Z,53.08
2022-11-15T13:15:14.638Z,54.95
2022-11-15T13:17:48.234Z,51.83
2022-11-15T13:20:18.303Z,50.05
2022-11-15T13:23:04.158Z,51.38
2022-11-15T13:25:37.287Z,57.88
2022-11-15T13:28:17.485Z,50.92
2022-11-15T13:30:57.704Z,49.72
2022-11-15T13:33:36.228Z,48.97
2022-11-15T13:36:28.718Z,66.57
2022-11-15T13:39:07.724Z,51.10
2022-11-15T13:41:37.250Z,58.25
2022-11-15T13:44:06.202Z,56.03
2022-11-15T13:46:34.992Z,71.95
2022-11-15T13:49:03.599Z,55.78
2022-11-15T13:51:45.600Z,60.60
2022-11-15T13:54:45.464Z,56.60
2022-11-15T13:57:17.502Z,60.63
2022-11-15T13:59:52.549Z,61.00
2022-11-15T14:02:28.176Z,54.33
2022-11-15T14:04:59.415Z,59.35
2022-11-15T14:07:29.056Z,54.78
2022-11-15T14:09:56.701Z,57.53
2022-11-15T14:12:33.076Z,58.63
2022-11-15T14:15:03.004Z,63.63
2022-11-15T14:17:29.945Z,65.32
2022-11-15T14:19:58.852Z,69.97
2022-11-15T14:22:29.214Z,70.85
2022-11-15T14:25:14.490Z,70.80
2022-11-15T14:27:45.768Z,66.70
2022-11-15T14:30:19.283Z,63.92
2022-11-15T14:32:49.951Z,69.20
2022-11-15T14:35:22.383Z,60.50
2022-11-15T14:37:50.143Z,61.58
2022-11-15T14:40:22.084Z,62.97
2022-11-15T14:42:50.748Z,62.60
2022-11-15T14:45:23.148Z,64.50
2022-11-15T14:47:50.125Z,61.17
2022-11-15T14:50:20.521Z,72.40
2022-11-15T14:52:48.202Z,69.97
2022-11-15T14:55:21.557Z,62.30
2022-11-15T14:57:48.561Z,52.90
2022-11-15T15:00:16.709Z,72.20
2022-11-15T15:02:45.253Z,63.60
2022-11-15T15:05:22.805Z,64.43
2022-11-15T15:07:50.376Z,56.38
2022-11-15T15:10:38.964Z,49.97
2022-11-15T15:13:06.658Z,66.30
2022-11-15T15:15:36.188Z,60.97
2022-11-15T15:18:05.725Z,63.78
2022-11-15T15:20:33.723Z,53.33
2022-11-15T15:23:00.654Z,55.00
2022-11-15T15:25:34.474Z,58.30
2022-11-15T15:28:02.398Z,60.00
2022-11-15T15:30:31.801Z,53.58
2022-11-15T15:32:58.997Z,58.90
2022-11-15T15:35:30.616Z,62.60
2022-11-15T15:37:57.897Z,58.20
2022-11-15T15:40:26.013Z,56.17
2022-11-15T15:42:53.014Z,63.33
2022-11-15T15:45:20.491Z,57.47
2022-11-15T15:47:48.263Z,61.33
2022-11-15T15:50:23.380Z,56.55
2022-11-15T15:52:55.094Z,54.35
2022-11-15T15:55:22.762Z,54.80
2022-11-15T15:57:50.874Z,57.88
2022-11-15T16:00:19.498Z,67.07
2022-11-15T16:02:47.155Z,62.50
2022-11-15T16:05:14.538Z,69.53
2022-11-15T16:07:44.362Z,80.90
2022-11-15T16:10:38.280Z,82.65
2022-11-15T16:13:05.277Z,86.30
2022-11-15T16:15:33.259Z,77.30
2022-11-15T16:18:01.938Z,92.47
2022-11-15T16:20:44.091Z,100.43
2022-11-15T16:23:14.288Z,81.20
2022-11-15T16:25:48.106Z,86.75
2022-11-15T16:28:19.540Z,77.10
2022-11-15T16:30:48.190Z,75.55
2022-11-15T16:33:19.572Z,74.60
2022-11-15T16:35:49.068Z,67.72
2022-11-15T16:38:17.182Z,70.60
2022-11-15T16:40:45.592Z,81.70
2022-11-15T16:43:12.919Z,80.57
2022-11-15T16:45:40.403Z,85.38
2022-11-15T16:48:07.832Z,74.10
2022-11-15T16:50:41.876Z,76.85
2022-11-15T16:53:09.716Z,76.78
2022-11-15T16:55:36.990Z,75.38
2022-11-15T16:58:04.048Z,74.93
2022-11-15T17:00:31.614Z,65.38
2022-11-15T17:02:58.818Z,72.25
2022-11-15T17:05:27.948Z,70.32
2022-11-15T17:07:55.444Z,68.32
2022-11-15T17:10:24.171Z,68.53
2022-11-15T17:12:52.702Z,71.68
2022-11-15T17:15:20.054Z,68.22
2022-11-15T17:17:55.774Z,77.78
2022-11-15T17:20:25.718Z,68.00
2022-11-15T17:22:53.334Z,76.63
2022-11-15T17:25:20.951Z,76.38
2022-11-15T17:27:50.220Z,74.13
2022-11-15T17:30:19.231Z,72.13
2022-11-15T17:32:51.043Z,71.70
2022-11-15T17:35:19.337Z,67.10
2022-11-15T17:37:48.807Z,73.15
2022-11-15T17:40:16.164Z,63.08
2022-11-15T17:42:43.126Z,66.38
2022-11-15T17:45:13.797Z,57.60
2022-11-15T17:47:41.029Z,69.03
2022-11-15T17:50:09.905Z,60.05
2022-11-15T17:52:37.210Z,54.95
2022-11-15T17:55:04.950Z,57.03
2022-11-15T17:57:32.512Z,54.53
2022-11-15T18:00:00.686Z,54.95
2022-11-15T18:02:28.314Z,49.20
2022-11-15T18:04:55.537Z,48.95
2022-11-15T18:07:22.726Z,44.75
2022-11-15T18:09:50.464Z,49.58
2022-11-15T18:12:17.951Z,46.72
2022-11-15T18:14:45.225Z,47.38
2022-11-15T18:17:12.983Z,46.85
2022-11-15T18:19:40.652Z,44.35
2022-11-15T18:22:10.575Z,58.80
2022-11-15T18:24:46.909Z,42.92
2022-11-15T18:27:15.551Z,47.28
2022-11-15T18:29:44.857Z,39.40
2022-11-15T18:32:12.802Z,44.10
2022-11-15T18:34:41.508Z,39.55
2022-11-15T18:37:09.051Z,47.55
2022-11-15T18:39:39.560Z,41.03
2022-11-15T18:42:06.854Z,48.05
2022-11-15T18:44:34.747Z,40.63
2022-11-15T18:47:02.064Z,44.30
2022-11-15T18:49:29.272Z,46.60
2022-11-15T18:51:57.571Z,42.17
2022-11-15T18:54:30.607Z,53.58
2022-11-15T18:56:58.775Z,51.55
2022-11-15T18:59:28.591Z,44.95
2022-11-15T19:01:57.168Z,53.00
2022-11-15T19:04:24.419Z,51.10
2022-11-15T19:06:54.084Z,47.45
2022-11-15T19:09:21.338Z,49.20
2022-11-15T19:11:52.021Z,45.67
2022-11-15T19:14:20.400Z,42.88
2022-11-15T19:16:55.704Z,38.55
2022-11-15T19:19:26.040Z,41.70
2022-11-15T19:21:54.555Z,40.58
2022-11-15T19:24:22.438Z,48.90
2022-11-15T19:26:50.209Z,44.00
2022-11-15T19:29:18.851Z,34.45
2022-11-15T19:31:53.576Z,45.78
2022-11-15T19:34:22.401Z,42.45
2022-11-15T19:36:49.742Z,50.17
2022-11-15T19:39:18.769Z,42.70
2022-11-15T19:41:47.034Z,48.33
2022-11-15T19:44:15.228Z,50.00
2022-11-15T19:46:43.248Z,50.60
2022-11-15T19:49:11.522Z,47.95
2022-11-15T19:51:41.884Z,43.55
2022-11-15T19:54:10.854Z,50.50
2022-11-15T19:56:41.257Z,48.67
2022-11-15T19:59:12.068Z,43.33
2022-11-15T20:01:39.991Z,46.00
2022-11-15T20:04:10.407Z,46.22
2022-11-15T20:06:42.195Z,47.20
2022-11-15T20:09:13.913Z,47.00
2022-11-15T20:11:41.474Z,41.50
2022-11-15T20:14:11.514Z,41.40
2022-11-15T20:16:39.803Z,47.92
2022-11-15T20:19:08.588Z,46.63
2022-11-15T20:21:36.405Z,39.38
2022-11-15T20:24:04.217Z,37.60
2022-11-15T20:26:32.969Z,37.97
2022-11-15T20:29:02.690Z,35.13
2022-11-15T20:31:31.748Z,31.98
2022-11-15T20:33:59.455Z,30.70
2022-11-15T20:36:27.233Z,30.30
2022-11-15T20:39:01.020Z,36.88
2022-11-15T20:41:29.082Z,26.85
2022-11-15T20:43:56.571Z,33.58
2022-11-15T20:46:24.061Z,31.23
2022-11-15T20:48:51.257Z,30.55
2022-11-15T20:51:18.995Z,29.50
2022-11-15T20:53:47.149Z,22.67
2022-11-15T20:56:18.056Z,30.70
2022-11-15T20:58:46.317Z,26.13
2022-11-15T21:01:16.546Z,27.73
2022-11-15T21:03:44.398Z,24.42
2022-11-15T21:06:12.390Z,25.25
2022-11-15T21:08:57.945Z,26.55
2022-11-15T21:11:44.127Z,25.27
2022-11-15T21:14:12.382Z,31.63
2022-11-15T21:16:39.452Z,29.88
2022-11-15T21:19:06.999Z,27.83
2022-11-15T21:21:35.836Z,21.88
2022-11-15T21:24:04.604Z,27.02
2022-11-15T21:26:31.708Z,31.33
2022-11-15T21:28:58.740Z,29.58
2022-11-15T21:31:25.762Z,24.23
2022-11-15T21:33:52.720Z,28.75
2022-11-15T21:36:19.791Z,25.65
2022-11-15T21:38:46.806Z,29.65
2022-11-15T21:41:13.796Z,29.30
2022-11-15T21:43:40.838Z,22.38
2022-11-15T21:46:07.909Z,27.45
2022-11-15T21:48:36.440Z,25.60
2022-11-15T21:51:10.185Z,28.95
2022-11-15T21:53:37.314Z,30.20
2022-11-15T21:56:04.655Z,29.60
2022-11-15T21:58:32.282Z,25.95
2022-11-15T22:01:18.671Z,28.70
2022-11-15T22:03:46.138Z,28.02
2022-11-15T22:06:17.822Z,29.20
2022-11-15T22:08:46.444Z,28.88
2022-11-15T22:11:14.611Z,27.73
2022-11-15T22:13:43.471Z,30.67
2022-11-15T22:16:11.153Z,28.98
2022-11-15T22:18:39.089Z,32.97
2022-11-15T22:21:10.505Z,37.42
2022-11-15T22:23:38.618Z,32.00
2022-11-15T22:26:07.105Z,34.45
2022-11-15T22:28:34.491Z,30.80
2022-11-15T22:31:02.370Z,30.13
2022-11-15T22:33:31.598Z,30.02
2022-11-15T22:35:58.846Z,31.45
2022-11-15T22:38:26.976Z,30.65
2022-11-15T22:40:55.178Z,31.48
2022-11-15T22:43:24.876Z,32.63
2022-11-15T22:45:51.821Z,34.38
2022-11-15T22:48:27.526Z,30.73
2022-11-15T22:50:55.426Z,32.15
2022-11-15T22:53:22.893Z,35.72
2022-11-15T22:55:55.653Z,32.42
2022-11-15T22:58:25.319Z,31.92
2022-11-15T23:00:54.416Z,30.67
2022-11-15T23:03:22.354Z,30.35
2022-11-15T23:05:50.430Z,29.75
2022-11-15T23:08:18.630Z,27.70
2022-11-15T23:11:05.194Z,32.45
2022-11-15T23:13:33.200Z,31.17
2022-11-15T23:16:23.487Z,26.95
2022-11-15T23:18:58.591Z,25.92
2022-11-15T23:21:46.481Z,29.98
2022-11-15T23:24:14.764Z,25.48
2022-11-15T23:26:43.371Z,28.55
2022-11-15T23:29:13.652Z,29.30
2022-11-15T23:32:02.338Z,29.75
2022-11-15T23:34:31.277Z,31.48
2022-11-15T23:36:59.141Z,30.13
2022-11-15T23:39:26.761Z,31.67
2022-11-15T23:41:53.713Z,28.40
2022-11-15T23:44:20.681Z,32.30
2022-11-15T23:46:47.662Z,32.47
2022-11-15T23:49:14.822Z,28.70
2022-11-15T23:51:41.966Z,28.52
2022-11-15T23:54:09.082Z,26.42
2022-11-15T23:56:36.104Z,31.13
2022-11-15T23:59:03.385Z,30.88
